Time,TemperatureF,DewpointF,PressureIn,WindDirection,WindDirectionDegrees,WindSpeedMPH,WindSpeedGustMPH,Humidity,HourlyPrecipIn,Conditions,Clouds,dailyrainin,SolarRadiationWatts/m^2,SoftwareType,DateUTC
2013-06-15 00:04:00,58.1,48.0,29.83,WSW,242,3.0,5.0,69,0.00,,,0.00,0,weatherlink.com 1.10,2013-06-15 07:04:00,
2013-06-15 00:19:00,57.8,48.0,29.83,West,267,0.0,5.0,69,0.00,,,0.00,0,weatherlink.com 1.10,2013-06-15 07:19:00,
2013-06-15 00:34:00,57.5,48.0,29.83,WSW,245,4.0,6.0,71,0.00,,,0.00,0,weatherlink.com 1.10,2013-06-15 07:34:00,
2013-06-15 00:50:00,56.9,48.0,29.82,West,261,6.0,9.0,73,0.00,,,0.00,0,weatherlink.com 1.10,2013-06-15 07:50:00,
2013-06-15 01:05:00,56.5,48.0,29.82,WSW,244,2.0,8.0,74,0.00,,,0.00,0,weatherlink.com 1.10,2013-06-15 08:05:00,
2013-06-15 01:20:00,56.2,48.0,29.82,West,276,3.0,9.0,75,0.00,,,0.00,0,weatherlink.com 1.10,2013-06-15 08:20:00,
2013-06-15 01:35:00,56.2,48.0,29.82,WSW,257,3.0,8.0,75,0.00,,,0.00,0,weatherlink.com 1.10,2013-06-15 08:35:00,
2013-06-15 01:50:00,55.8,49.0,29.82,WSW,248,6.0,10.0,77,0.00,,,0.00,0,weatherlink.com 1.10,2013-06-15 08:50:00,
2013-06-15 02:05:00,55.3,50.0,29.82,West,281,7.0,8.0,81,0.00,,,0.00,0,weatherlink.com 1.10,2013-06-15 09:05:00,
2013-06-15 02:20:00,54.6,50.0,29.82,West,277,3.0,9.0,83,0.00,,,0.00,0,weatherlink.com 1.10,2013-06-15 09:20:00,
2013-06-15 02:35:00,54.0,49.0,29.82,West,272,6.0,8.0,84,0.00,,,0.00,0,weatherlink.com 1.10,2013-06-15 09:35:00,
2013-06-15 02:50:00,53.8,49.0,29.82,WSW,238,5.0,10.0,85,0.00,,,0.00,0,weatherlink.com 1.10,2013-06-15 09:50:00,
2013-06-15 03:05:00,53.1,49.0,29.82,NW,311,8.0,14.0,86,0.00,,,0.00,0,weatherlink.com 1.10,2013-06-15 10:05:00,
2013-06-15 03:20:00,52.7,49.0,29.82,WNW,302,1.0,13.0,87,0.00,,,0.00,0,weatherlink.com 1.10,2013-06-15 10:20:00,
2013-06-15 03:35:00,52.1,49.0,29.83,West,273,1.0,11.0,88,0.00,,,0.00,0,weatherlink.com 1.10,2013-06-15 10:35:00,
2013-06-15 03:50:00,51.8,49.0,29.83,West,259,3.0,10.0,90,0.00,,,0.00,0,weatherlink.com 1.10,2013-06-15 10:50:00,
2013-06-15 04:05:00,51.9,49.0,29.83,NW,325,10.0,10.0,91,0.00,,,0.00,0,weatherlink.com 1.10,2013-06-15 11:05:00,
2013-06-15 04:20:00,51.9,49.0,29.84,WSW,253,4.0,10.0,91,0.00,,,0.00,0,weatherlink.com 1.10,2013-06-15 11:20:00,
2013-06-15 04:35:00,52.1,50.0,29.84,West,259,8.0,8.0,91,0.00,,,0.00,0,weatherlink.com 1.10,2013-06-15 11:35:00,
2013-06-15 04:50:00,52.1,50.0,29.84,WSW,252,3.0,11.0,91,0.00,,,0.00,0,weatherlink.com 1.10,2013-06-15 11:50:00,
2013-06-15 05:05:00,52.1,50.0,29.84,NW,305,3.0,10.0,91,0.00,,,0.00,0,weatherlink.com 1.10,2013-06-15 12:05:00,
2013-06-15 05:20:00,52.2,50.0,29.84,West,263,4.0,8.0,91,0.00,,,0.00,0,weatherlink.com 1.10,2013-06-15 12:20:00,
2013-06-15 05:35:00,52.2,50.0,29.85,West,275,4.0,10.0,91,0.00,,,0.00,0,weatherlink.com 1.10,2013-06-15 12:35:00,
2013-06-15 05:50:00,52.1,49.0,29.85,WSW,253,5.0,9.0,90,0.00,,,0.00,7,weatherlink.com 1.10,2013-06-15 12:50:00,
2013-06-15 06:05:00,52.2,49.0,29.85,NW,308,0.0,8.0,90,0.00,,,0.00,19,weatherlink.com 1.10,2013-06-15 13:05:00,
2013-06-15 06:20:00,52.4,49.0,29.86,WNW,292,5.0,7.0,89,0.00,,,0.00,60,weatherlink.com 1.10,2013-06-15 13:20:00,
2013-06-15 06:35:00,52.8,49.0,29.86,WNW,302,3.0,6.0,88,0.00,,,0.00,100,weatherlink.com 1.10,2013-06-15 13:35:00,
2013-06-15 06:51:00,53.0,50.0,29.87,West,280,5.0,8.0,88,0.00,,,0.00,155,weatherlink.com 1.10,2013-06-15 13:51:00,
2013-06-15 07:06:00,53.2,50.0,29.87,WSW,257,6.0,9.0,88,0.00,,,0.00,209,weatherlink.com 1.10,2013-06-15 14:06:00,
2013-06-15 07:21:00,53.7,50.0,29.88,WNW,296,6.0,11.0,88,0.00,,,0.00,258,weatherlink.com 1.10,2013-06-15 14:21:00,
2013-06-15 07:36:00,54.0,50.0,29.88,West,271,7.0,13.0,87,0.00,,,0.00,316,weatherlink.com 1.10,2013-06-15 14:36:00,
2013-06-15 07:51:00,54.7,51.0,29.88,West,267,3.0,13.0,86,0.00,,,0.00,362,weatherlink.com 1.10,2013-06-15 14:51:00,
2013-06-15 08:06:00,55.3,51.0,29.88,West,270,3.0,12.0,84,0.00,,,0.00,411,weatherlink.com 1.10,2013-06-15 15:06:00,
2013-06-15 08:21:00,57.5,51.0,29.89,WSW,247,4.0,10.0,80,0.00,,,0.00,466,weatherlink.com 1.10,2013-06-15 15:21:00,
2013-06-15 08:36:00,57.9,51.0,29.89,WSW,253,4.0,11.0,78,0.00,,,0.00,513,weatherlink.com 1.10,2013-06-15 15:36:00,
2013-06-15 08:51:00,59.2,51.0,29.89,West,270,8.0,10.0,75,0.00,,,0.00,564,weatherlink.com 1.10,2013-06-15 15:51:00,
2013-06-15 09:06:00,58.9,51.0,29.90,WNW,283,8.0,13.0,75,0.00,,,0.00,617,weatherlink.com 1.10,2013-06-15 16:06:00,
2013-06-15 09:21:00,59.3,51.0,29.90,WNW,288,4.0,14.0,74,0.00,,,0.00,659,weatherlink.com 1.10,2013-06-15 16:21:00,
2013-06-15 09:36:00,60.6,51.0,29.90,WNW,303,4.0,13.0,71,0.00,,,0.00,698,weatherlink.com 1.10,2013-06-15 16:36:00,
2013-06-15 09:51:00,61.5,51.0,29.90,WSW,255,5.0,12.0,69,0.00,,,0.00,738,weatherlink.com 1.10,2013-06-15 16:51:00,
2013-06-15 10:06:00,62.4,52.0,29.90,WNW,299,9.0,12.0,68,0.00,,,0.00,777,weatherlink.com 1.10,2013-06-15 17:06:00,
2013-06-15 10:22:00,64.1,52.0,29.91,SW,228,8.0,11.0,64,0.00,,,0.00,814,weatherlink.com 1.10,2013-06-15 17:22:00,
2013-06-15 10:37:00,64.5,51.0,29.91,West,271,9.0,14.0,62,0.00,,,0.00,840,weatherlink.com 1.10,2013-06-15 17:37:00,
2013-06-15 10:52:00,65.7,51.0,29.91,West,281,7.0,11.0,60,0.00,,,0.00,872,weatherlink.com 1.10,2013-06-15 17:52:00,
2013-06-15 11:07:00,67.4,51.0,29.91,West,265,7.0,11.0,57,0.00,,,0.00,888,weatherlink.com 1.10,2013-06-15 18:07:00,
2013-06-15 11:22:00,67.2,51.0,29.91,WNW,300,4.0,12.0,56,0.00,,,0.00,904,weatherlink.com 1.10,2013-06-15 18:22:00,
2013-06-15 11:37:00,68.0,52.0,29.91,West,281,5.0,13.0,56,0.00,,,0.00,933,weatherlink.com 1.10,2013-06-15 18:37:00,
2013-06-15 11:52:00,69.4,51.0,29.91,West,267,9.0,12.0,53,0.00,,,0.00,953,weatherlink.com 1.10,2013-06-15 18:52:00,
2013-06-15 12:07:00,69.6,52.0,29.91,WNW,302,10.0,15.0,53,0.00,,,0.00,988,weatherlink.com 1.10,2013-06-15 19:07:00,
2013-06-15 12:22:00,70.9,52.0,29.91,West,271,3.0,12.0,52,0.00,,,0.00,970,weatherlink.com 1.10,2013-06-15 19:22:00,
2013-06-15 12:37:00,71.6,52.0,29.91,WSW,237,5.0,15.0,51,0.00,,,0.00,976,weatherlink.com 1.10,2013-06-15 19:37:00,
2013-06-15 12:52:00,71.9,52.0,29.91,West,270,4.0,12.0,50,0.00,,,0.00,974,weatherlink.com 1.10,2013-06-15 19:52:00,
2013-06-15 13:07:00,72.5,52.0,29.91,SW,230,7.0,15.0,49,0.00,,,0.00,974,weatherlink.com 1.10,2013-06-15 20:07:00,
2013-06-15 13:22:00,72.7,52.0,29.91,WNW,301,9.0,14.0,49,0.00,,,0.00,962,weatherlink.com 1.10,2013-06-15 20:22:00,
2013-06-15 13:37:00,72.5,52.0,29.91,WNW,294,11.0,15.0,49,0.00,,,0.00,951,weatherlink.com 1.10,2013-06-15 20:37:00,
2013-06-15 13:52:00,71.8,53.0,29.91,West,279,8.0,17.0,51,0.00,,,0.00,937,weatherlink.com 1.10,2013-06-15 20:52:00,
2013-06-15 14:07:00,72.3,53.0,29.91,West,272,12.0,16.0,51,0.00,,,0.00,918,weatherlink.com 1.10,2013-06-15 21:07:00,
2013-06-15 14:22:00,71.5,53.0,29.91,SW,230,9.0,17.0,52,0.00,,,0.00,902,weatherlink.com 1.10,2013-06-15 21:22:00,
2013-06-15 14:37:00,72.0,53.0,29.91,West,269,13.0,16.0,51,0.00,,,0.00,877,weatherlink.com 1.10,2013-06-15 21:37:00,
2013-06-15 14:52:00,71.9,53.0,29.91,WSW,254,4.0,16.0,51,0.00,,,0.00,853,weatherlink.com 1.10,2013-06-15 21:52:00,
2013-06-15 15:07:00,71.7,52.0,29.91,NW,306,13.0,17.0,51,0.00,,,0.00,816,weatherlink.com 1.10,2013-06-15 22:07:00,
2013-06-15 15:22:00,71.5,52.0,29.91,WNW,286,12.0,17.0,51,0.00,,,0.00,784,weatherlink.com 1.10,2013-06-15 22:22:00,
2013-06-15 15:37:00,70.0,51.0,29.91,WNW,302,10.0,18.0,52,0.00,,,0.00,749,weatherlink.com 1.10,2013-06-15 22:37:00,
2013-06-15 15:52:00,70.5,52.0,29.91,WNW,298,12.0,15.0,52,0.00,,,0.00,707,weatherlink.com 1.10,2013-06-15 22:52:00,
2013-06-15 16:07:00,69.5,51.0,29.91,WSW,244,6.0,21.0,53,0.00,,,0.00,666,weatherlink.com 1.10,2013-06-15 23:07:00,
2013-06-15 16:22:00,69.4,51.0,29.91,NW,309,9.0,16.0,53,0.00,,,0.00,624,weatherlink.com 1.10,2013-06-15 23:22:00,
2013-06-15 16:37:00,68.9,50.0,29.91,WNW,286,9.0,18.0,52,0.00,,,0.00,580,weatherlink.com 1.10,2013-06-15 23:37:00,
2013-06-15 16:52:00,68.0,51.0,29.91,WNW,293,10.0,16.0,54,0.00,,,0.00,540,weatherlink.com 1.10,2013-06-15 23:52:00,
2013-06-15 17:07:00,67.6,51.0,29.91,WNW,298,12.0,15.0,56,0.00,,,0.00,490,weatherlink.com 1.10,2013-06-16 00:07:00,
2013-06-15 17:22:00,66.2,51.0,29.91,SSW,200,6.0,18.0,58,0.00,,,0.00,446,weatherlink.com 1.10,2013-06-16 00:22:00,
2013-06-15 17:37:00,64.9,51.0,29.91,NNE,12,3.0,16.0,61,0.00,,,0.00,396,weatherlink.com 1.10,2013-06-16 00:37:00,
2013-06-15 17:52:00,64.5,51.0,29.92,WNW,294,10.0,20.0,61,0.00,,,0.00,350,weatherlink.com 1.10,2013-06-16 00:52:00,
2013-06-15 18:07:00,63.3,51.0,29.92,WNW,284,12.0,16.0,64,0.00,,,0.00,299,weatherlink.com 1.10,2013-06-16 01:07:00,
2013-06-15 18:22:00,61.6,51.0,29.93,WSW,252,3.0,16.0,68,0.00,,,0.00,251,weatherlink.com 1.10,2013-06-16 01:22:00,
2013-06-15 18:37:00,60.3,50.0,29.93,West,262,7.0,17.0,70,0.00,,,0.00,193,weatherlink.com 1.10,2013-06-16 01:37:00,
2013-06-15 18:52:00,58.6,50.0,29.94,WNW,292,9.0,19.0,74,0.00,,,0.00,137,weatherlink.com 1.10,2013-06-16 01:52:00,
2013-06-15 19:07:00,57.6,50.0,29.94,WNW,284,12.0,16.0,76,0.00,,,0.00,42,weatherlink.com 1.10,2013-06-16 02:07:00,
2013-06-15 19:22:00,56.5,50.0,29.95,NW,304,7.0,16.0,79,0.00,,,0.00,47,weatherlink.com 1.10,2013-06-16 02:22:00,
2013-06-15 19:37:00,55.7,50.0,29.95,NW,306,7.0,16.0,81,0.00,,,0.00,26,weatherlink.com 1.10,2013-06-16 02:37:00,
2013-06-15 19:52:00,55.1,50.0,29.95,NW,307,5.0,15.0,82,0.00,,,0.00,21,weatherlink.com 1.10,2013-06-16 02:52:00,
2013-06-15 20:07:00,54.6,50.0,29.95,WSW,247,8.0,16.0,83,0.00,,,0.00,14,weatherlink.com 1.10,2013-06-16 03:07:00,
2013-06-15 20:22:00,54.1,49.0,29.95,West,277,8.0,16.0,83,0.00,,,0.00,9,weatherlink.com 1.10,2013-06-16 03:22:00,
2013-06-15 20:38:00,53.6,49.0,29.96,SW,215,6.0,17.0,85,0.00,,,0.00,0,weatherlink.com 1.10,2013-06-16 03:38:00,
2013-06-15 20:53:00,53.5,49.0,29.96,West,263,6.0,14.0,85,0.00,,,0.00,0,weatherlink.com 1.10,2013-06-16 03:53:00,
2013-06-15 21:08:00,53.3,49.0,29.97,West,280,9.0,14.0,85,0.00,,,0.00,0,weatherlink.com 1.10,2013-06-16 04:08:00,
2013-06-15 21:23:00,53.0,49.0,29.97,WNW,291,4.0,15.0,86,0.00,,,0.00,0,weatherlink.com 1.10,2013-06-16 04:23:00,
2013-06-15 21:38:00,53.1,49.0,29.98,West,264,7.0,15.0,86,0.00,,,0.00,0,weatherlink.com 1.10,2013-06-16 04:38:00,
2013-06-15 21:53:00,52.8,49.0,29.98,West,269,8.0,16.0,86,0.00,,,0.00,0,weatherlink.com 1.10,2013-06-16 04:53:00,
2013-06-15 22:08:00,52.7,49.0,29.99,WSW,257,4.0,13.0,87,0.00,,,0.00,0,weatherlink.com 1.10,2013-06-16 05:08:00,
2013-06-15 22:23:00,52.9,49.0,30.00,WNW,297,9.0,12.0,87,0.00,,,0.00,0,weatherlink.com 1.10,2013-06-16 05:23:00,
2013-06-15 22:38:00,52.7,49.0,30.00,WSW,241,10.0,15.0,87,0.00,,,0.00,0,weatherlink.com 1.10,2013-06-16 05:38:00,
2013-06-15 22:53:00,52.8,49.0,30.00,SW,227,9.0,14.0,87,0.00,,,0.00,0,weatherlink.com 1.10,2013-06-16 05:53:00,
2013-06-15 23:08:00,52.8,49.0,30.00,SW,233,5.0,16.0,87,0.00,,,0.00,0,weatherlink.com 1.10,2013-06-16 06:08:00,
2013-06-15 23:23:00,52.7,49.0,30.00,South,179,1.0,14.0,88,0.00,,,0.00,0,weatherlink.com 1.10,2013-06-16 06:23:00,
2013-06-15 23:38:00,52.9,50.0,30.00,WNW,286,4.0,13.0,88,0.00,,,0.00,0,weatherlink.com 1.10,2013-06-16 06:38:00,
2013-06-15 23:53:00,52.9,50.0,30.00,WSW,249,4.0,15.0,88,0.00,,,0.00,0,weatherlink.com 1.10,2013-06-16 06:53:00,